createdAt,value
2023-03-13T00:00:38.547Z,100249.22
2023-03-13T00:08:14.496Z,100253.03
2023-03-13T00:15:48.595Z,100239.03
2023-03-13T00:23:25.160Z,100229.41
2023-03-13T00:31:04.021Z,100220.72
2023-03-13T00:38:40.674Z,100221.63
2023-03-13T00:46:17.108Z,100221.63
2023-03-13T00:53:52.568Z,100200.50
2023-03-13T01:01:28.379Z,100187.31
2023-03-13T01:09:05.263Z,100183.03
2023-03-13T01:16:40.095Z,100176.91
2023-03-13T01:24:17.291Z,100183.28
2023-03-13T01:31:51.231Z,100172.63
2023-03-13T01:39:26.458Z,100181.47
2023-03-13T01:47:00.240Z,100161.06
2023-03-13T01:54:40.372Z,100142.53
2023-03-13T02:02:16.062Z,100127.63
2023-03-13T02:09:54.552Z,100128.50
2023-03-13T02:17:29.022Z,100117.97
2023-03-13T02:25:11.940Z,100106.44
2023-03-13T02:32:48.272Z,100101.25
2023-03-13T02:48:20.575Z,100078.31
2023-03-13T02:55:55.364Z,100059.19
2023-03-13T03:03:30.895Z,100045.03
2023-03-13T03:11:06.774Z,100038.22
2023-03-13T03:18:42.813Z,100027.72
2023-03-13T03:26:17.253Z,100027.81
2023-03-13T03:33:52.932Z,100023.53
2023-03-13T03:41:27.001Z,100006.78
2023-03-13T03:49:02.259Z,99993.56
2023-03-13T03:56:36.254Z,99984.81
2023-03-13T04:04:11.783Z,99974.25
2023-03-13T04:11:46.282Z,99961.03
2023-03-13T04:19:21.898Z,99953.09
2023-03-13T04:26:56.071Z,99936.34
2023-03-13T04:34:31.644Z,99923.97
2023-03-13T04:42:06.061Z,99917.81
2023-03-13T04:49:42.564Z,99904.63
2023-03-13T04:57:16.443Z,99890.44
2023-03-13T05:04:52.462Z,99871.97
2023-03-13T05:12:26.427Z,99848.94
2023-03-13T05:20:01.879Z,99842.72
2023-03-13T05:27:36.076Z,99840.03
2023-03-13T05:35:11.820Z,99817.94
2023-03-13T05:42:46.811Z,99801.16
2023-03-13T05:50:22.436Z,99779.06
2023-03-13T05:57:56.709Z,99764.84
2023-03-13T06:05:32.444Z,99754.28
2023-03-13T06:13:18.974Z,99749.84
2023-03-13T06:21:00.516Z,99726.88
2023-03-13T06:28:34.621Z,99706.53
2023-03-13T06:36:11.399Z,99688.84
2023-03-13T06:43:45.618Z,99660.53
2023-03-13T06:51:22.607Z,99638.44
2023-03-13T06:58:59.538Z,99633.19
2023-03-13T07:06:35.695Z,99641.19
2023-03-13T07:14:17.063Z,99638.59
2023-03-13T07:21:53.502Z,99613.84
2023-03-13T07:29:28.416Z,99614.81
2023-03-13T07:37:03.790Z,99603.31
2023-03-13T07:44:37.924Z,99596.28
2023-03-13T07:52:13.103Z,99576.88
2023-03-13T07:59:47.398Z,99575.13
2023-03-13T08:07:22.742Z,99567.22
2023-03-13T08:14:57.557Z,99552.19
2023-03-13T08:22:33.108Z,99536.25
2023-03-13T08:30:08.596Z,99530.09
2023-03-13T08:37:44.370Z,99513.31
2023-03-13T08:45:18.715Z,99510.69
2023-03-13T08:52:54.135Z,99493.88
2023-03-13T09:00:28.518Z,99491.22
2023-03-13T09:08:03.980Z,99472.59
2023-03-13T09:15:38.366Z,99469.09
2023-03-13T09:23:13.791Z,99475.31
2023-03-13T09:30:50.156Z,99475.31
2023-03-13T09:38:25.662Z,99477.09
2023-03-13T09:46:03.091Z,99444.28
2023-03-13T09:53:44.459Z,99448.69
2023-03-13T10:01:24.018Z,99445.13
2023-03-13T10:09:01.619Z,99432.69
2023-03-13T10:16:43.548Z,99451.34
2023-03-13T10:24:26.574Z,99427.28
2023-03-13T10:32:02.873Z,99437.03
2023-03-13T10:39:38.268Z,99416.50
2023-03-13T10:47:14.893Z,99412.03
2023-03-13T10:54:50.351Z,99390.53
2023-03-13T11:02:28.080Z,99382.47
2023-03-13T11:10:16.803Z,99374.28
2023-03-13T11:18:00.467Z,99373.22
2023-03-13T11:25:40.960Z,99356.97
2023-03-13T11:33:27.280Z,99356.69
2023-03-13T11:41:15.067Z,99340.47
2023-03-13T11:49:04.520Z,99353.59
2023-03-13T11:56:44.441Z,99340.91
2023-03-13T12:04:24.538Z,99341.50
2023-03-13T12:12:04.776Z,99345.53
2023-03-13T12:19:44.747Z,99340.56
2023-03-13T12:27:25.715Z,99332.00
2023-03-13T12:35:08.821Z,99307.13
2023-03-13T12:42:52.732Z,99307.56
2023-03-13T12:50:40.485Z,99287.47
2023-03-13T12:58:28.127Z,99283.50
2023-03-13T13:06:13.934Z,99277.56
2023-03-13T13:13:49.389Z,99280.22
2023-03-13T13:21:26.837Z,99271.59
2023-03-13T13:29:25.307Z,99243.69
2023-03-13T13:37:00.403Z,99243.34
2023-03-13T13:44:35.590Z,99242.22
2023-03-13T13:52:40.321Z,99248.66
2023-03-13T14:00:22.319Z,99248.28
2023-03-13T14:08:01.790Z,99242.75
2023-03-13T14:15:37.227Z,99239.69
2023-03-13T14:23:12.787Z,99235.56
2023-03-13T14:38:52.158Z,99219.16
2023-03-13T14:46:32.376Z,99221.03
2023-03-13T14:54:25.804Z,99208.56
2023-03-13T15:02:04.674Z,99201.06
2023-03-13T15:09:43.967Z,99204.38
2023-03-13T15:17:22.282Z,99194.25
2023-03-13T15:25:06.047Z,99170.47
2023-03-13T15:40:36.043Z,99156.91
2023-03-13T15:48:17.503Z,99158.25
2023-03-13T15:55:52.517Z,99126.16
2023-03-13T16:03:29.260Z,99135.25
2023-03-13T16:11:03.509Z,99126.53
2023-03-13T16:26:32.762Z,99080.94
2023-03-13T16:34:08.380Z,99074.94
2023-03-13T16:41:42.310Z,99068.94
2023-03-13T16:49:17.874Z,99060.59
2023-03-13T16:56:51.924Z,99055.66
2023-03-13T17:04:27.982Z,99046.88
2023-03-13T17:12:01.984Z,99056.53
2023-03-13T17:19:37.302Z,99030.84
2023-03-13T17:27:14.148Z,99047.31
2023-03-13T17:42:42.855Z,99049.84
2023-03-13T17:50:21.124Z,99045.56
2023-03-13T17:57:55.385Z,99057.41
2023-03-13T18:05:30.681Z,99041.50
2023-03-13T18:13:04.701Z,99046.09
2023-03-13T18:20:40.119Z,99035.34
2023-03-13T18:28:14.012Z,99029.91
2023-03-13T18:35:49.525Z,99024.22
2023-03-13T18:43:23.576Z,99014.38
2023-03-13T18:50:59.205Z,99007.31
2023-03-13T18:58:33.205Z,99016.41
2023-03-13T19:14:12.481Z,98996.63
2023-03-13T19:21:48.410Z,98955.69
2023-03-13T19:29:24.551Z,98975.59
2023-03-13T19:37:00.108Z,98969.63
2023-03-13T19:44:34.767Z,98954.59
2023-03-13T19:52:10.005Z,98947.63
2023-03-13T20:07:36.900Z,98954.13
2023-03-13T20:15:11.783Z,98942.81
2023-03-13T20:22:47.353Z,98931.47
2023-03-13T20:30:23.124Z,98922.75
2023-03-13T20:38:00.997Z,98906.91
2023-03-13T20:45:34.803Z,98909.72
2023-03-13T20:53:10.267Z,98923.13
2023-03-13T21:00:45.050Z,98915.16
2023-03-13T21:08:20.868Z,98918.63
2023-03-13T21:16:01.172Z,98929.50
2023-03-13T21:23:38.068Z,98924.22
2023-03-13T21:31:14.701Z,98938.56
2023-03-13T21:38:50.775Z,98950.88
2023-03-13T21:46:25.376Z,98924.91
2023-03-13T21:54:00.671Z,98916.00
2023-03-13T22:01:34.578Z,98898.19
2023-03-13T22:09:10.078Z,98905.38
2023-03-13T22:16:44.185Z,98908.97
2023-03-13T22:24:19.498Z,98883.88
2023-03-13T22:31:53.917Z,98883.09
2023-03-13T22:47:20.699Z,98888.53
2023-03-13T22:54:56.401Z,98859.25
2023-03-13T23:02:30.684Z,98875.53
2023-03-13T23:10:08.512Z,98885.53
2023-03-13T23:17:42.724Z,98868.72
2023-03-13T23:25:19.191Z,98850.00
2023-03-13T23:32:53.110Z,98837.38
2023-03-13T23:40:29.099Z,98849.44
2023-03-13T23:48:03.272Z,98843.50
2023-03-13T23:55:38.349Z,98845.56
